TERMINUS DAM (TRM)

Elevation: 752' · KAWEAH R basin · Operator: US Army Corps of Engineers

Provisional data, subject to change.
Query executed Sunday at 7:13:10   clock

Select a sensor type for a plot of data.
Note: Reservoir Flows are daily averages.

Earlier

Date RES ELE    STORAGE    RES CHG    TOC STO    ABV TOC    OUTFLOW    INFLOW    FNF    PPT INC    TEMP MN    TEMP MX    WINDLEN    EVP PAN   
 FEET   AF   AF   AF   AF   CFS   CFS   CFS   INCHES   DEG F   DEG F   MILES   INCHES  
07/03/2015 630.54 46213 -263 185300 -139087 82 -38 353 0.00 25 40 96 0.36
07/04/2015 629.96 45582 -631 185300 -139718 81 -231 104 0.00 23 40 89 0.36
07/05/2015 629.33 44902 -680 185300 -140398 116 -215 52 e 0.00 24 37 91 0.35
07/06/2015 628.68 44207 -695 185300 -141093 456 117 117 e 0.00 21 36 94 0.34
07/07/2015 628.00 43487 -720 185300 -141813 441 89 89 0.00 20 36 84 0.32
07/08/2015 627.31 42763 -724 185300 -142537 437 83 83 0.00 20 34 95 0.33
07/09/2015 626.61 42036 -727 185300 -143264 435 77 77 0.00 18 29 88 0.24
07/10/2015 625.94 41347 -689 185300 -143953 437 100 100 0.00 18 32 84 0.30
07/11/2015 625.25 40645 -682 185300 -144635 437 103 103 0.00 18 33 84 0.31
07/12/2015 624.59 39980 -685 185300 -145320 420 95 85 0.00 20 35 89 0.31
07/13/2015 623.72 39114 -- 185300 -- 498 72 72 0.00 20 35 86 0.32
07/14/2015 622.73 38142 -- 185300 -- 561 81 81 0.00 19 36 78 0.32
07/15/2015 621.73 37176 -966 185300 -148124 559 83 83 0.00 18 36 88 0.33
07/16/2015 620.62 36122 -1054 185300 -149178 559 38 38 0.00 21 39 97 0.36
07/17/2015 619.55 35123 -999 185300 -150177 560 67 67 0.00 23 40 87 0.36
07/18/2015 618.51 34170 -953 185300 -151130 530 60 60 0.00 22 38 137 0.34
07/19/2015 617.40 33170 -1000 185300 -152130 562 67 67 0.00 24 35 136 0.33
07/20/2015 616.41 32295 -875 185300 -153005 562 129 129 0.00 24 36 136 0.31
07/21/2015 616.10 32024 -271 185300 -153276 486 361 361 0.00 24 38 170 0.38
07/22/2015 616.03 31963 -61 185300 -153337 431 409 409 0.00 24 36 92 0.33
07/23/2015 615.42 31435 -528 185300 -153865 418 161 161 0.00 20 35 91 0.33
07/24/2015 614.94 31023 -412 185300 -154277 316 117 117 0.00 19 36 105 0.34
07/25/2015 614.64 30768 -255 185300 -154532 233 114 114 0.00 18 37 90 0.34
07/26/2015 614.38 30547 -221 185057 -154510 186 83 83 0.00 18 37 81 0.28
07/27/2015 614.17 30370 -177 184816 -154446 143 62 62 0.00 18 35 95 0.32
07/28/2015 614.00 30227 -143 184599 -154372 124 61 61 0.00 22 38 102 0.35
07/29/2015 613.85 30101 -126 184398 -154297 110 57 57 0.00 24 43 104 0.38
07/30/2015 613.70 29976 -125 185300 -155324 107 52 52 0.00 25 37 125 0.29
07/31/2015 613.52 29826 -150 185300 -155474 107 41 -- 0.00 28 41 92 0.33
08/01/2015 613.35 29685 -141 185300 -155615 108 46 -- 0.00 24 39 85 0.33
08/02/2015 -- -- -- -- -- -- -- -- -- -- -- -- --

Later | Latest

Warning! This data is preliminary and subject to revision.

Show TRM Map | Plot TRM Data | 1 Month TRM Data | Real-Time TRM Data | TRM Info